Terminal Aerodrome Forecast
Issued by NWS

Home | Current Version | Previous Version | Text Only | Print | Product List | Glossary On
Versions: 1 2 3 4 5 6 7 8 9 10 11 12 13 14 15 16 17 18 19 20
000
FTUS45 KCYS 300250 AAB
TAFAIA
TAF AMD
KAIA 300250Z 3003/3024 13010KT P6SM VCSH BKN120
     FM300600 16006KT P6SM BKN200
     FM301900 17010KT P6SM SCT050=

USA.gov is the U.S. government's official web portal to all federal, state and local government web resources and services.